Time;durP1;ratioP1;P1;durP2;ratioP2;P2;SDS_P1;SDS_P2;PMS_P1;PMS_P2;Temp;Humidity;BMP_temperature;BMP_pressure;BME280_temperature;BME280_humidity;BME280_pressure;Samples;Min_cycle;Max_cycle;Signal;HPM_P1;HPM_P2
2023/03/03 00:42:13;992963.00;3.31;1720.01;21219.00;0.07;37.38;;;;;8.40;1.00;;;;;;2282873;61;1942;-89
2023/03/03 00:47:25;964726.00;3.22;1670.10;6074.00;0.02;11.15;;;;;7.70;1.00;;;;;;2287267;61;1309;-90
2023/03/03 00:52:29;940781.00;3.14;1627.86;0.00;0.00;0.62;;;;;7.80;1.00;;;;;;2287086;61;1301;-91
2023/03/03 01:50:45;844200.00;2.81;1458.32;0.00;0.00;0.62;;;;;8.80;1.00;;;;;;2286633;61;1306;-90
2023/03/03 02:18:20;974185.00;3.25;1686.80;0.00;0.00;0.62;;;;;7.70;1.00;;;;;;2290616;60;1295;-88
2023/03/03 03:51:32;1721531.00;5.74;3067.34;39683.00;0.13;69.34;;;;;7.70;1.00;;;;;;2283292;61;1325;-91
2023/03/03 03:56:33;1187725.00;3.96;2068.04;36888.00;0.12;64.50;;;;;8.00;1.00;;;;;;2287586;61;1305;-91
2023/03/03 04:01:35;1434847.00;4.78;2521.11;53861.00;0.18;93.86;;;;;8.20;1.00;;;;;;2279320;61;1877;-91
2023/03/03 04:57:12;937484.00;3.12;1622.05;5385.00;0.02;9.95;;;;;8.00;1.00;;;;;;2287380;61;999;-89
2023/03/03 05:10:02;1764708.00;5.88;3151.86;227281.00;0.76;392.87;;;;;7.70;1.00;;;;;;2291228;60;1358;-89
2023/03/03 05:12:31;2461501.00;8.21;4619.01;341748.00;1.14;589.68;;;;;8.10;1.00;;;;;;2289366;60;1569;-91
2023/03/03 05:30:32;1286619.00;4.29;2247.64;58832.00;0.20;102.46;;;;;8.20;1.00;;;;;;2286314;61;1368;-90
2023/03/03 07:54:35;1095034.00;3.65;1901.55;16824.00;0.06;29.77;;;;;8.80;1.00;;;;;;2296365;55;3584;-87
2023/03/03 07:59:40;907369.00;3.02;1569.07;5204.00;0.02;9.64;;;;;9.00;1.00;;;;;;2521254;55;3484;31
2023/03/03 08:12:41;692862.00;2.31;1194.86;0.00;0.00;0.62;;;;;9.30;1.00;;;;;;2525678;40;3503;31
2023/03/03 10:05:00;1084529.00;3.62;1882.78;0.00;0.00;0.62;;;;;11.70;1.00;;;;;;2286667;60;995;-89
2023/03/03 10:35:44;1611319.00;5.37;2854.39;83731.00;0.28;145.48;;;;;11.40;1.00;;;;;;2286703;61;1007;-91
2023/03/03 10:48:56;669720.00;2.23;1154.77;108305.00;0.36;187.91;;;;;12.10;1.00;;;;;;2289985;60;1398;-87
2023/03/03 10:51:32;871803.00;2.91;1506.65;104730.00;0.35;181.74;;;;;12.60;1.00;;;;;;2288473;60;1375;-88
2023/03/03 10:54:11;718368.00;2.39;1239.11;100033.00;0.33;173.63;;;;;12.90;1.00;;;;;;2288437;60;1120;-86
2023/03/03 10:56:50;464434.00;1.55;800.61;42777.00;0.14;74.69;;;;;13.20;1.00;;;;;;2288462;60;1073;-86
2023/03/03 10:59:37;492029.00;1.64;848.10;69198.00;0.23;120.37;;;;;12.90;1.00;;;;;;2288406;60;1472;-88
2023/03/03 11:02:17;154244.00;0.51;267.12;0.00;0.00;0.62;;;;;12.40;1.00;;;;;;2288378;60;1913;-86
2023/03/03 11:05:06;529964.00;1.77;913.43;7783.00;0.03;14.11;;;;;12.00;1.00;;;;;;2288458;60;1108;-85
2023/03/03 11:07:40;413450.00;1.38;712.93;0.00;0.00;0.62;;;;;11.80;1.00;;;;;;2288398;60;1121;-85
2023/03/03 11:10:24;508252.00;1.69;876.03;0.00;0.00;0.62;;;;;12.00;1.00;;;;;;2288381;60;1473;-85
2023/03/03 11:13:09;176118.00;0.59;304.80;0.00;0.00;0.62;;;;;12.10;1.00;;;;;;2288444;60;951;-87
2023/03/03 11:15:48;279347.00;0.93;482.41;0.00;0.00;0.62;;;;;12.20;1.00;;;;;;2288414;60;1062;-85
2023/03/03 11:18:25;289223.00;0.96;499.39;0.00;0.00;0.62;;;;;12.20;1.00;;;;;;2288381;60;947;-85
2023/03/03 11:21:02;370038.00;1.23;638.30;0.00;0.00;0.62;;;;;12.10;1.00;;;;;;2288350;60;1141;-85
2023/03/03 11:23:50;222582.00;0.74;384.79;0.00;0.00;0.62;;;;;12.10;1.00;;;;;;2288516;60;1996;-86
2023/03/03 11:26:43;404074.00;1.35;696.81;0.00;0.00;0.62;;;;;12.00;1.00;;;;;;2289094;60;1027;-88
2023/03/03 11:29:27;300841.00;1.00;519.37;27538.00;0.09;48.32;;;;;11.50;1.00;;;;;;2289007;60;1497;-88
2023/03/03 11:31:59;468285.00;1.56;807.24;0.00;0.00;0.62;;;;;11.60;1.00;;;;;;2289063;60;1434;-86
2023/03/03 11:34:44;289787.00;0.97;500.36;23027.00;0.08;40.51;;;;;12.30;1.00;;;;;;2289107;60;1062;-86
2023/03/03 11:37:20;347011.00;1.16;598.72;0.00;0.00;0.62;;;;;11.90;1.00;;;;;;2289074;60;996;-85
2023/03/03 11:39:52;245239.00;0.82;423.76;0.00;0.00;0.62;;;;;11.70;1.00;;;;;;2289010;60;1572;-85
2023/03/03 11:42:28;703177.00;2.34;1212.75;236865.00;0.79;409.36;;;;;11.70;1.00;;;;;;2289041;60;1918;-85
2023/03/03 11:45:00;272792.00;0.91;471.14;0.00;0.00;0.62;;;;;12.40;1.00;;;;;;2289023;60;1024;-85
2023/03/03 11:47:34;314955.00;1.05;543.63;0.00;0.00;0.62;;;;;12.20;1.00;;;;;;2288983;60;1040;-85
2023/03/03 11:50:04;471388.00;1.57;812.58;20459.00;0.07;36.06;;;;;12.70;1.00;;;;;;2288983;60;1387;-86
2023/03/03 11:52:38;267770.00;0.89;462.51;37809.00;0.13;66.10;;;;;12.90;1.00;;;;;;2289008;60;990;-86
2023/03/03 11:55:13;182371.00;0.61;315.57;44946.00;0.15;78.44;;;;;12.40;1.00;;;;;;2289026;60;1050;-86
2023/03/03 11:57:44;124942128.00;416.47;79018752.00;19833.00;0.07;34.98;;;;;12.20;1.00;;;;;;2288985;60;1026;-86
2023/03/03 12:00:31;352271.00;1.17;607.76;0.00;0.00;0.62;;;;;12.00;1.00;;;;;;2288976;60;1351;-86
2023/03/03 12:03:30;113480.00;0.38;196.83;0.00;0.00;0.62;;;;;11.20;1.00;;;;;;2288965;60;1976;-87
2023/03/03 12:06:13;128488.00;0.43;222.72;0.00;0.00;0.62;;;;;11.20;1.00;;;;;;2282414;60;1155;-86
2023/03/03 12:09:16;544730.00;1.82;938.88;7782.00;0.03;14.11;;;;;11.50;1.00;;;;;;2288919;60;1399;-86
2023/03/03 12:11:54;636419.00;2.12;1097.15;21779.00;0.07;38.35;;;;;11.90;1.00;;;;;;2288154;60;1687;-85
2023/03/03 12:14:38;227121.00;0.76;392.60;0.00;0.00;0.62;;;;;12.00;1.00;;;;;;2288951;60;979;-86
2023/03/03 12:17:15;341857.00;1.14;589.87;0.00;0.00;0.62;;;;;11.80;1.00;;;;;;2288967;60;942;-86
2023/03/03 12:19:52;426287.00;1.42;735.00;26933.00;0.09;47.27;;;;;11.70;1.00;;;;;;2288985;60;1470;-87
2023/03/03 12:22:30;127338224.00;424.46;83657256.00;127009464.00;423.36;83010344.00;;;;;11.00;1.00;;;;;;2289019;60;1915;-88
2023/03/03 12:25:17;284025.00;0.95;490.46;0.00;0.00;0.62;;;;;10.50;1.00;;;;;;2288976;60;1109;-87
2023/03/03 12:27:52;548932.00;1.83;946.12;114279.00;0.38;198.21;;;;;10.40;1.00;;;;;;2288962;60;1114;-86
2023/03/03 12:30:48;440490.00;1.47;759.43;0.00;0.00;0.62;;;;;10.40;1.00;;;;;;2288876;60;1392;-86
2023/03/03 12:33:26;278128.00;0.93;480.32;0.00;0.00;0.62;;;;;11.10;1.00;;;;;;2287230;60;1817;-86
2023/03/03 12:36:07;66592.00;0.22;115.87;0.00;0.00;0.62;;;;;11.60;1.00;;;;;;2288659;60;1693;-86
2023/03/03 12:38:44;363376.00;1.21;626.85;54366.00;0.18;94.74;;;;;11.40;1.00;;;;;;2288840;60;1478;-87
2023/03/03 12:41:20;212962.00;0.71;368.23;0.00;0.00;0.62;;;;;10.90;1.00;;;;;;2288756;60;1044;-84
2023/03/03 12:44:00;365167.00;1.22;629.93;41108.00;0.14;71.81;;;;;11.10;1.00;;;;;;2288814;60;1989;-85
2023/03/03 12:46:40;290150.00;0.97;500.99;0.00;0.00;0.62;;;;;11.00;1.00;;;;;;2288726;60;1133;-86
2023/03/03 12:49:07;95730.00;0.32;166.20;0.00;0.00;0.62;;;;;11.40;1.00;;;;;;2288802;60;1332;-85
2023/03/03 12:51:48;286027.00;0.95;493.90;0.00;0.00;0.62;;;;;11.60;1.00;;;;;;2288792;60;2359;-86
2023/03/03 12:54:31;371205.00;1.24;640.31;0.00;0.00;0.62;;;;;11.90;1.00;;;;;;2288773;60;1094;-84
2023/03/03 12:57:05;149111.00;0.50;258.28;0.00;0.00;0.62;;;;;12.00;1.00;;;;;;2288831;60;906;-87
2023/03/03 12:59:44;181262.00;0.60;313.66;0.00;0.00;0.62;;;;;12.50;1.00;;;;;;2288791;60;1484;-86
2023/03/03 13:02:38;640596.00;2.14;1104.37;44870.00;0.15;78.31;;;;;12.60;1.00;;;;;;2288709;60;2012;-86
2023/03/03 13:05:29;463597.00;1.55;799.17;43114.00;0.14;75.28;;;;;13.20;1.00;;;;;;2288080;60;1565;-87
2023/03/03 13:08:18;561133.00;1.87;967.15;0.00;0.00;0.62;;;;;13.10;1.00;;;;;;2288709;60;1133;-87
2023/03/03 13:10:51;465169.00;1.55;801.88;51325.00;0.17;89.48;;;;;12.80;1.00;;;;;;2288709;60;1153;-86
2023/03/03 13:13:24;181428.00;0.60;313.95;0.00;0.00;0.62;;;;;12.80;1.00;;;;;;2288786;60;1046;-86
2023/03/03 13:21:11;2018988.00;6.73;3663.39;166470.00;0.55;288.19;;;;;12.40;1.00;;;;;;2293101;55;3581;-85
2023/03/03 13:23:48;1834221.00;6.11;3289.30;305961.00;1.02;528.17;;;;;12.40;1.00;;;;;;2292760;60;1919;-85
2023/03/03 13:26:22;766749.00;2.56;1323.19;107202.00;0.36;186.00;;;;;12.50;1.00;;;;;;2292810;60;1588;-84
2023/03/03 13:29:03;732949.00;2.44;1264.42;113080.00;0.38;196.14;;;;;12.00;1.00;;;;;;2292778;60;1365;-85
2023/03/03 13:31:35;907255.00;3.02;1568.87;107747.00;0.36;186.94;;;;;11.70;1.00;;;;;;2292782;60;943;-85
2023/03/03 13:34:03;799964.00;2.67;1381.06;94345.00;0.31;163.81;;;;;11.90;1.00;;;;;;2292826;60;1691;-85
2023/03/03 13:36:38;543895.00;1.81;937.44;100534.00;0.34;174.49;;;;;11.70;1.00;;;;;;2292813;60;1082;-85
2023/03/03 13:39:18;492745.00;1.64;849.33;100304.00;0.33;174.10;;;;;11.60;1.00;;;;;;2292789;60;1373;-87
2023/03/03 13:41:48;832526.00;2.78;1437.91;103029.00;0.34;178.80;;;;;11.70;1.00;;;;;;2292792;60;1143;-85
2023/03/03 13:44:24;463194.00;1.54;798.48;82889.00;0.28;144.03;;;;;11.60;1.00;;;;;;2292676;60;2018;-88
2023/03/03 13:47:04;791142.00;2.64;1365.68;247527.00;0.83;427.70;;;;;11.20;1.00;;;;;;2292680;60;1123;-86
2023/03/03 13:49:47;584066.00;1.95;1006.72;103100.00;0.34;178.92;;;;;11.80;1.00;;;;;;2292821;60;1362;-87
2023/03/03 13:52:22;966844.00;3.22;1673.84;104420.00;0.35;181.20;;;;;11.70;1.00;;;;;;2292708;60;1173;-85
2023/03/03 13:55:00;666195.00;2.22;1148.66;90268.00;0.30;156.77;;;;;12.10;1.00;;;;;;2292759;60;1038;-85
2023/03/03 13:57:43;511337.00;1.70;881.34;77625.00;0.26;134.93;;;;;12.00;1.00;;;;;;2292773;60;1030;-86
2023/03/03 14:00:30;403244.00;1.34;695.38;101781.00;0.34;176.65;;;;;12.30;1.00;;;;;;2292716;60;1450;-86
2023/03/03 14:03:17;431878.00;1.44;744.62;105527.00;0.35;183.11;;;;;11.90;1.00;;;;;;2292668;60;1978;-85
2023/03/03 14:05:46;907489.00;3.02;1569.28;93054.00;0.31;161.58;;;;;11.30;1.00;;;;;;2292794;60;1040;-87
2023/03/03 14:08:25;442343.00;1.47;762.61;95328.00;0.32;165.51;;;;;11.30;1.00;;;;;;2292646;60;2231;-86
2023/03/03 14:11:07;972344.00;3.24;1683.55;141244.00;0.47;244.72;;;;;11.70;1.00;;;;;;2292710;60;1034;-86
2023/03/03 14:13:44;179728.00;0.60;311.02;0.00;0.00;0.62;;;;;12.10;1.00;;;;;;2292725;60;1134;-86
2023/03/03 14:16:19;258047.00;0.86;445.79;0.00;0.00;0.62;;;;;12.00;1.00;;;;;;2292727;60;1131;-87
2023/03/03 14:18:55;511550.00;1.71;881.71;22080.00;0.07;38.87;;;;;11.80;1.00;;;;;;2292561;60;1660;-84
2023/03/03 14:21:31;174859.00;0.58;302.64;0.00;0.00;0.62;;;;;11.30;1.00;;;;;;2292621;60;1109;-87
2023/03/03 14:24:12;237940.00;0.79;411.21;0.00;0.00;0.62;;;;;11.00;1.00;;;;;;2292678;60;1979;-85
2023/03/03 14:26:50;194478.00;0.65;336.42;0.00;0.00;0.62;;;;;11.00;1.00;;;;;;2292706;60;1141;-86
2023/03/03 14:29:29;466317.00;1.55;803.85;0.00;0.00;0.62;;;;;11.10;1.00;;;;;;2292599;60;1595;-86
2023/03/03 14:31:57;288423.00;0.96;498.02;0.00;0.00;0.62;;;;;11.40;1.00;;;;;;2292670;60;1083;-86
2023/03/03 14:34:37;400081.00;1.33;689.94;0.00;0.00;0.62;;;;;11.50;1.00;;;;;;2292527;60;1624;-87
2023/03/03 14:37:23;254973.00;0.85;440.50;0.00;0.00;0.62;;;;;11.10;1.00;;;;;;2292600;60;1560;-86
2023/03/03 14:40:06;286079.00;0.95;493.99;0.00;0.00;0.62;;;;;11.00;1.00;;;;;;2292572;60;1404;-85
2023/03/03 14:42:39;890485.00;2.97;1539.41;149776.00;0.50;259.42;;;;;11.40;1.00;;;;;;2292538;60;1919;-86
2023/03/03 14:45:21;325311.00;1.08;561.43;0.00;0.00;0.62;;;;;11.50;1.00;;;;;;2292579;60;1074;-86
2023/03/03 14:47:49;493964.00;1.65;851.43;0.00;0.00;0.62;;;;;11.70;1.00;;;;;;2292439;60;1090;-86
2023/03/03 14:50:38;394839.00;1.32;680.93;0.00;0.00;0.62;;;;;11.60;1.00;;;;;;2292429;60;1370;-86
2023/03/03 14:53:16;184551.00;0.62;319.33;0.00;0.00;0.62;;;;;11.10;1.00;;;;;;2291543;60;1183;-87
2023/03/03 14:55:47;226567.00;0.76;391.64;0.00;0.00;0.62;;;;;11.00;1.00;;;;;;2292462;60;994;-86
2023/03/03 14:58:33;317603.00;1.06;548.18;0.00;0.00;0.62;;;;;11.00;1.00;;;;;;2292602;60;1145;-87
2023/03/03 15:01:16;510065.00;1.70;879.15;0.00;0.00;0.62;;;;;10.80;1.00;;;;;;2293221;60;1394;-85
2023/03/03 15:03:51;557867.00;1.86;961.52;19801.00;0.07;34.93;;;;;10.80;1.00;;;;;;2293205;60;1910;-86
2023/03/03 15:06:35;516438.00;1.72;890.13;10932.00;0.04;19.56;;;;;11.00;1.00;;;;;;2293134;60;1051;-87
2023/03/03 15:09:22;835141.00;2.78;1442.48;56280.00;0.19;98.05;;;;;10.90;1.00;;;;;;2314865;40;3543;-85
2023/03/03 15:11:53;203104.00;0.68;351.27;0.00;0.00;0.62;;;;;10.80;1.00;;;;;;2289179;60;1097;-86
2023/03/03 15:14:28;254468.00;0.85;439.64;0.00;0.00;0.62;;;;;10.80;1.00;;;;;;2289074;60;1594;-86
2023/03/03 15:16:58;380403.00;1.27;656.12;89292.00;0.30;155.09;;;;;10.70;1.00;;;;;;2289121;60;1037;-87
2023/03/03 15:19:49;441205.00;1.47;760.66;0.00;0.00;0.62;;;;;10.60;1.00;;;;;;2291350;55;3773;-86
2023/03/03 15:22:31;146807.00;0.49;254.30;0.00;0.00;0.62;;;;;10.50;1.00;;;;;;2289092;60;1145;-86
2023/03/03 15:25:04;398390.00;1.33;687.04;0.00;0.00;0.62;;;;;10.80;1.00;;;;;;2289089;60;1044;-86
2023/03/03 15:27:40;443374.00;1.48;764.39;15858.00;0.05;28.10;;;;;10.90;1.00;;;;;;2289098;60;1047;-86
2023/03/03 15:30:21;390938.00;1.30;674.23;0.00;0.00;0.62;;;;;10.90;1.00;;;;;;2288971;60;1377;-85
2023/03/03 15:32:59;180882.00;0.60;313.01;0.00;0.00;0.62;;;;;10.90;1.00;;;;;;2289035;60;1103;-86
2023/03/03 15:35:36;434790.00;1.45;749.62;0.00;0.00;0.62;;;;;10.90;1.00;;;;;;2289095;60;1094;-87
2023/03/03 15:38:15;1131139.00;3.77;1966.20;73726.00;0.25;128.20;;;;;10.70;1.00;;;;;;2289062;60;1073;-87
2023/03/03 15:40:48;1380106.00;4.60;2419.48;66449.00;0.22;115.62;;;;;10.70;1.00;;;;;;2295469;39;3793;-86
2023/03/03 15:43:27;1076371.00;3.59;1868.22;101418.00;0.34;176.02;;;;;11.00;1.00;;;;;;2288929;60;2039;-88
2023/03/03 15:46:06;1345268.00;4.48;2355.19;112599.00;0.38;195.31;;;;;10.60;1.00;;;;;;2289111;60;1099;-86
2023/03/03 15:48:54;1605393.00;5.35;2843.05;56861.00;0.19;99.05;;;;;10.50;1.00;;;;;;2289039;60;2184;-85
2023/03/03 15:51:34;1229913.00;4.10;2144.40;146099.00;0.49;253.08;;;;;10.70;1.00;;;;;;2289010;60;1146;-86
2023/03/03 15:54:25;1564358.00;5.21;2764.82;181508.00;0.61;314.09;;;;;11.00;1.00;;;;;;2289038;60;1008;-85
2023/03/03 15:56:56;981236.00;3.27;1699.27;100236.00;0.33;173.98;;;;;11.30;1.00;;;;;;2288940;60;2216;-85
2023/03/03 15:59:59;1386744.00;4.62;2431.76;247545.00;0.83;427.73;;;;;11.20;1.00;;;;;;2288979;60;1340;-87
2023/03/03 16:02:38;806914.00;2.69;1393.18;58693.00;0.20;102.22;;;;;11.00;1.00;;;;;;2288869;60;1169;-86
2023/03/03 16:05:16;779361.00;2.60;1345.15;56332.00;0.19;98.14;;;;;11.30;1.00;;;;;;2288897;60;1993;-86
2023/03/03 16:07:58;761123.00;2.54;1313.40;0.00;0.00;0.62;;;;;11.40;1.00;;;;;;2288814;60;1535;-86
2023/03/03 16:10:36;133076.00;0.44;230.63;0.00;0.00;0.62;;;;;11.40;1.00;;;;;;2288552;60;1467;-86
2023/03/03 16:13:21;206414.00;0.69;356.96;0.00;0.00;0.62;;;;;11.70;1.00;;;;;;2288812;60;2133;-85
2023/03/03 16:15:59;780290.00;2.60;1346.77;48923.00;0.16;85.32;;;;;11.20;1.00;;;;;;2288863;60;1018;-86
2023/03/03 16:18:38;1240489.00;4.13;2163.60;81433.00;0.27;141.51;;;;;10.90;1.00;;;;;;2288622;60;1391;-87
2023/03/03 16:21:23;1454848.00;4.85;2558.44;94805.00;0.32;164.60;;;;;11.20;1.00;;;;;;2288889;60;1153;-85
2023/03/03 16:23:51;1517303.00;5.06;2675.72;128796.00;0.43;223.25;;;;;11.40;1.00;;;;;;2288746;60;2006;-86
2023/03/03 16:26:36;1076058.00;3.59;1867.66;108876.00;0.36;188.89;;;;;11.60;1.00;;;;;;2288835;60;1143;-85
2023/03/03 16:29:30;1542359.00;5.14;2723.08;87166.00;0.29;151.41;;;;;11.60;1.00;;;;;;2288835;60;1439;-86
2023/03/03 16:32:08;1730645.00;5.77;3085.12;401711.00;1.34;692.75;;;;;11.20;1.00;;;;;;2288867;60;1047;-85
2023/03/03 16:34:47;1154861.00;3.85;2008.82;109696.00;0.37;190.31;;;;;10.80;1.00;;;;;;2288908;60;1098;-86
2023/03/03 16:37:22;1303310.00;4.34;2278.16;139610.00;0.47;241.90;;;;;10.70;1.00;;;;;;2288895;60;1109;-86
2023/03/03 16:39:56;1377663.00;4.59;2414.96;154101.00;0.51;266.87;;;;;10.70;1.00;;;;;;2288845;60;1279;-85
2023/03/03 16:42:28;1212124.00;4.04;2112.16;66120.00;0.22;115.06;;;;;10.70;1.00;;;;;;2288776;60;1026;-85
2023/03/03 16:45:12;626722.00;2.09;1080.38;98375.00;0.33;170.77;;;;;10.40;1.00;;;;;;2288793;60;2012;-86
2023/03/03 16:48:05;1436930.00;4.79;2524.99;167678.00;0.56;290.27;;;;;10.50;1.00;;;;;;2288851;60;986;-85
2023/03/03 16:50:43;1363925.00;4.55;2389.58;174598.00;0.58;302.19;;;;;10.40;1.00;;;;;;2288725;60;1606;-86
2023/03/03 16:53:19;1578613.00;5.26;2791.94;346421.00;1.15;597.71;;;;;10.10;1.00;;;;;;2288803;60;1142;-86
2023/03/03 16:55:59;628605.00;2.10;1083.64;103257.00;0.34;179.19;;;;;10.20;1.00;;;;;;2288826;60;1065;-87
2023/03/03 16:58:39;643742.00;2.15;1109.81;100439.00;0.33;174.33;;;;;10.10;1.00;;;;;;2288695;60;1481;-86
2023/03/03 17:01:19;845173.00;2.82;1460.02;146814.00;0.49;254.32;;;;;10.10;1.00;;;;;;2288705;60;992;-85
2023/03/03 17:03:59;438465.00;1.46;755.94;95254.00;0.32;165.38;;;;;10.10;1.00;;;;;;2288699;60;1974;-86
2023/03/03 17:06:34;182959.00;0.61;316.59;0.00;0.00;0.62;;;;;10.10;1.00;;;;;;2288724;60;2130;-86
2023/03/03 17:09:29;125676280.00;418.92;80421224.00;6167.00;0.02;11.31;;;;;10.30;1.00;;;;;;2288714;60;1470;-84
2023/03/03 17:12:25;659125.00;2.20;1136.43;147831.00;0.49;256.07;;;;;10.50;1.00;;;;;;2288767;60;1130;-85
2023/03/03 17:15:14;974490.00;3.25;1687.34;158827.00;0.53;275.02;;;;;10.40;1.00;;;;;;2288772;60;909;-85
2023/03/03 17:17:46;590503.00;1.97;1017.82;123446.00;0.41;214.03;;;;;10.20;1.00;;;;;;2288771;60;1134;-86
2023/03/03 17:20:31;262677.00;0.88;453.75;0.00;0.00;0.62;;;;;10.20;1.00;;;;;;2288671;60;1340;-85
2023/03/03 17:23:30;444220.00;1.48;765.84;106328.00;0.35;184.49;;;;;10.10;1.00;;;;;;2288657;60;1117;-86
2023/03/03 17:26:13;709729.00;2.37;1224.11;100180.00;0.33;173.88;;;;;10.10;1.00;;;;;;2288698;60;2260;-85
2023/03/03 17:28:48;918050.00;3.06;1587.84;93633.00;0.31;162.58;;;;;10.20;1.00;;;;;;2288626;60;1339;-84
2023/03/03 17:31:24;765584.00;2.55;1321.17;80266.00;0.27;139.50;;;;;10.20;1.00;;;;;;2288308;60;1583;-85
2023/03/03 17:34:18;678141.00;2.26;1169.35;28184.00;0.09;49.44;;;;;10.20;1.00;;;;;;2288683;60;1113;-86
2023/03/03 17:37:04;869576.00;2.90;1502.75;42599.00;0.14;74.38;;;;;10.20;1.00;;;;;;2288622;60;1211;-86
2023/03/03 17:39:54;544181.00;1.81;937.93;28710.00;0.10;50.35;;;;;10.10;1.00;;;;;;2288572;60;1458;-85
2023/03/03 17:42:30;242087.00;0.81;418.34;0.00;0.00;0.62;;;;;10.10;1.00;;;;;;2288510;60;1121;-85
2023/03/03 17:45:06;230048.00;0.77;397.63;0.00;0.00;0.62;;;;;10.10;1.00;;;;;;2288675;60;1980;-85
2023/03/03 17:47:49;438427.00;1.46;755.88;17712.00;0.06;31.31;;;;;10.20;1.00;;;;;;2288622;60;1122;-86
2023/03/03 17:50:37;581953.00;1.94;1003.07;14980.00;0.05;26.58;;;;;10.20;1.00;;;;;;2288576;60;1380;-85
2023/03/03 17:53:36;442422.00;1.47;762.75;0.00;0.00;0.62;;;;;10.30;1.00;;;;;;2288659;60;1013;-86
2023/03/03 17:56:21;440109.00;1.47;758.77;0.00;0.00;0.62;;;;;10.50;1.00;;;;;;2288593;60;1046;-86
2023/03/03 17:59:16;444048.00;1.48;765.55;44053.00;0.15;76.90;;;;;10.40;1.00;;;;;;2288574;60;1410;-85
2023/03/03 18:02:17;651435.00;2.17;1123.12;116418.00;0.39;201.90;;;;;10.40;1.00;;;;;;2288570;60;1035;-87
2023/03/03 18:05:34;1176976.00;3.92;2048.65;117564.00;0.39;203.88;;;;;10.20;1.00;;;;;;2288553;60;1982;-86
2023/03/03 18:08:29;1435836.00;4.79;2522.96;68891.00;0.23;119.84;;;;;10.10;1.00;;;;;;2275846;61;1002;-85
2023/03/03 18:11:22;1148522.00;3.83;1997.42;41326.00;0.14;72.18;;;;;10.10;1.00;;;;;;2287989;60;1143;-85
2023/03/03 18:14:21;876879.00;2.92;1515.55;32465.00;0.11;56.85;;;;;9.90;1.00;;;;;;2288552;60;976;-86
2023/03/03 18:17:20;664862.00;2.22;1146.36;41955.00;0.14;73.27;;;;;10.00;1.00;;;;;;2288456;60;1994;-86
2023/03/03 18:20:12;541027.00;1.80;932.49;47891.00;0.16;83.54;;;;;9.90;1.00;;;;;;2288380;60;1681;-85
2023/03/03 18:22:44;310365.00;1.03;535.74;0.00;0.00;0.62;;;;;10.00;1.00;;;;;;2288524;60;1041;-85
2023/03/03 18:25:14;230720.00;0.77;398.79;0.00;0.00;0.62;;;;;10.10;1.00;;;;;;2288472;60;1989;-86
2023/03/03 18:27:42;61862.00;0.21;107.70;0.00;0.00;0.62;;;;;10.20;1.00;;;;;;2288450;60;1039;-86
2023/03/03 18:30:25;866372.00;2.89;1497.13;20048.00;0.07;35.35;;;;;10.20;1.00;;;;;;2288387;60;1534;-86
2023/03/03 18:33:36;781884.00;2.61;1349.55;41050.00;0.14;71.71;;;;;10.00;1.00;;;;;;2288311;60;1160;-86
2023/03/03 18:36:15;466952.00;1.56;804.95;0.00;0.00;0.62;;;;;10.00;1.00;;;;;;2267391;61;1158;-84
2023/03/03 18:38:46;328331.00;1.09;566.62;0.00;0.00;0.62;;;;;9.70;1.00;;;;;;2287565;60;1367;-85
2023/03/03 18:41:23;465326.00;1.55;802.15;0.00;0.00;0.62;;;;;9.70;1.00;;;;;;2288306;60;1766;-86
2023/03/03 18:43:58;227129.00;0.76;392.61;0.00;0.00;0.62;;;;;10.00;1.00;;;;;;2288377;60;2006;-85
2023/03/03 18:46:45;294614.00;0.98;508.66;67220.00;0.22;116.96;;;;;10.10;1.00;;;;;;2288402;60;1560;-86
2023/03/03 18:49:13;635417.00;2.12;1095.41;11383.00;0.04;20.35;;;;;10.20;1.00;;;;;;2288384;60;1293;-86
2023/03/03 18:51:49;1034222.00;3.45;1793.18;121900.00;0.41;211.36;;;;;10.20;1.00;;;;;;2288367;60;1114;-85
2023/03/03 18:54:28;1671659.00;5.57;2970.49;105647.00;0.35;183.32;;;;;10.50;1.00;;;;;;2288340;60;1047;-86
2023/03/03 18:57:21;1028599.00;3.43;1783.19;98470.00;0.33;170.93;;;;;10.20;1.00;;;;;;2288456;60;1104;-85
2023/03/03 18:59:57;192888.00;0.64;333.68;0.00;0.00;0.62;;;;;10.40;1.00;;;;;;2284213;60;1267;-85
2023/03/03 19:02:37;820519.00;2.74;1416.93;25830.00;0.09;45.36;;;;;10.10;1.00;;;;;;2288507;60;1036;-84
2023/03/03 19:05:24;617447.00;2.06;1064.35;118056.00;0.39;204.73;;;;;9.80;1.00;;;;;;2288346;60;2009;-86
2023/03/03 19:07:58;747674.00;2.49;1290.01;26274.00;0.09;46.13;;;;;9.80;1.00;;;;;;2288438;60;1124;-86
2023/03/03 19:10:51;953295.00;3.18;1649.92;36418.00;0.12;63.69;;;;;9.70;1.00;;;;;;2288297;60;1459;-87
2023/03/03 19:13:50;1051294.00;3.50;1823.54;66964.00;0.22;116.51;;;;;9.80;1.00;;;;;;2291421;55;3762;-86
2023/03/03 19:16:38;895331.00;2.98;1547.92;65797.00;0.22;114.50;;;;;9.80;1.00;;;;;;2292415;60;1049;-85
2023/03/03 19:19:14;400977.00;1.34;691.48;0.00;0.00;0.62;;;;;9.30;1.00;;;;;;2292449;60;1459;-84
2023/03/03 19:21:43;693556.00;2.31;1196.07;50403.00;0.17;87.88;;;;;9.20;1.00;;;;;;2292435;60;1073;-86
2023/03/03 19:24:26;458429.00;1.53;790.28;0.00;0.00;0.62;;;;;9.30;1.00;;;;;;2292393;60;2011;-85
2023/03/03 19:27:18;883745.00;2.95;1527.59;29048.00;0.10;50.94;;;;;9.40;1.00;;;;;;2292434;60;2203;-86
2023/03/03 19:30:21;405526.00;1.35;699.31;17781.00;0.06;31.43;;;;;9.40;1.00;;;;;;2292413;60;1460;-87
2023/03/03 19:33:27;643044.00;2.14;1108.60;72312.00;0.24;125.76;;;;;8.70;1.00;;;;;;2292403;60;1027;-85
2023/03/03 19:36:07;371702.00;1.24;641.16;0.00;0.00;0.62;;;;;8.40;1.00;;;;;;2292436;60;1100;-87
2023/03/03 19:38:46;319667.00;1.07;551.73;0.00;0.00;0.62;;;;;8.60;1.00;;;;;;2292302;60;1350;-86
2023/03/03 19:41:28;447227.00;1.49;771.01;0.00;0.00;0.62;;;;;8.40;1.00;;;;;;2292445;60;1059;-85
2023/03/03 19:44:11;419161.00;1.40;722.75;26635.00;0.09;46.76;;;;;8.50;1.00;;;;;;2292366;60;1982;-85
2023/03/03 19:46:54;629065.00;2.10;1084.43;5800.00;0.02;10.67;;;;;8.50;1.00;;;;;;2293016;60;1040;-86
2023/03/03 19:49:39;553875.00;1.85;954.64;27437.00;0.09;48.15;;;;;8.80;1.00;;;;;;2292999;60;1340;-86
2023/03/03 19:52:17;649974.00;2.17;1120.59;0.00;0.00;0.62;;;;;8.80;1.00;;;;;;2292928;60;1123;-86
2023/03/03 19:55:02;487921.00;1.63;841.03;7697.00;0.03;13.96;;;;;9.00;1.00;;;;;;2293139;60;1137;-86
2023/03/03 19:57:41;405031.00;1.35;698.45;0.00;0.00;0.62;;;;;9.20;1.00;;;;;;2293045;60;1137;-85
2023/03/03 20:00:20;491721.00;1.64;847.57;0.00;0.00;0.62;;;;;9.10;1.00;;;;;;2293005;60;1369;-85
2023/03/03 20:03:08;397202.00;1.32;685.00;0.00;0.00;0.62;;;;;9.10;1.00;;;;;;2293119;60;925;-86
2023/03/03 20:05:45;382136.00;1.27;659.10;0.00;0.00;0.62;;;;;9.60;1.00;;;;;;2292915;60;1915;-85
2023/03/03 20:08:20;346677.00;1.16;598.15;0.00;0.00;0.62;;;;;9.50;1.00;;;;;;2292928;60;1045;-86
2023/03/03 20:10:54;393184.00;1.31;678.09;0.00;0.00;0.62;;;;;9.60;1.00;;;;;;2292954;60;1556;-86
2023/03/03 20:16:06;375567.00;1.25;647.81;0.00;0.00;0.62;;;;;9.90;1.00;;;;;;1996531;59;2649;-85
2023/03/03 20:19:06;267627.00;0.89;462.26;0.00;0.00;0.62;;;;;10.20;1.00;;;;;;2288783;60;1365;-84
2023/03/03 20:21:39;195987.00;0.65;339.02;0.00;0.00;0.62;;;;;10.50;1.00;;;;;;2288823;60;1070;-84
2023/03/03 20:24:38;232382.00;0.77;401.65;0.00;0.00;0.62;;;;;10.70;1.00;;;;;;2288812;60;2008;-85
2023/03/03 20:27:11;553323.00;1.84;953.69;11395.00;0.04;20.37;;;;;10.50;1.00;;;;;;2285887;60;1174;-86
2023/03/03 20:29:58;349307.00;1.16;602.67;0.00;0.00;0.62;;;;;10.60;1.00;;;;;;2288840;60;1321;-85
2023/03/03 20:32:44;268229.00;0.89;463.30;13885.00;0.05;24.68;;;;;10.60;1.00;;;;;;2288809;60;1085;-86
2023/03/03 20:38:04;481003.00;1.60;829.12;3981.00;0.01;7.52;;;;;10.50;1.00;;;;;;2286195;60;1353;-86
2023/03/03 20:40:41;306012.00;1.02;528.25;5443.00;0.02;10.05;;;;;10.10;1.00;;;;;;2284776;60;1519;-84
2023/03/03 20:43:22;275704.00;0.92;476.15;0.00;0.00;0.62;;;;;10.50;1.00;;;;;;2284738;60;1104;-86